Yechon Air Base, South Korea

11:12 AM KST on August 31, 2014 (GMT +0900)
Chongju International | Change Station
CLOSE
Current Station
Airport
Location: Cheongju AB,
Elevation: 190 ft
Nearby Weather Stations

Elev 190 ft 36.72 °N, 127.50 °E | Updated 12 minutes ago

Clear
Clear
77 °F
Feels Like 77 °F
N
4
Wind Variable Wind from NW

Today
High -- | Low -- °F
--% Chance of Precip.
Yesterday
High -- | Low -- °F
Precip. -- in
5:56 AM 6:57 PM
Waxing Crescent, 26% visible
Pressure 29.98 in
Visibility -9999.0 miles
Clouds
Dew Point 59 °F
Humidity 54%
Rainfall 0.00 in
Snow Depth Not available.
UV Not available.
Pollen Not available.
Air Quality Not available.
Flu Activity Not available.
METAR RKTU 310200Z 31003KT CAVOK 25/15 Q1015 NOSIG

More Conditions Fewer Conditions

Pressure 29.98 in
Visibility -9999.0 miles
Clouds
Dew Point 59 °F
Humidity 54%
Rainfall 0.00 in
Snow Depth Not available.
UV Not available.
Pollen Not available.
Air Quality Not available.
Flu Activity Not available.
METAR RKTU 310200Z 31003KT CAVOK 25/15 Q1015 NOSIG

More Conditions Fewer Conditions

10-Day Weather Forecast

Almanac

Astronomy

Aug. 31, 2014 Rise Set
Actual Time 5:56 AM KST 6:57 PM KST
Civil Twilight 5:30 AM KST 7:23 PM KST
Nautical Twilight 4:58 AM KST 7:54 PM KST
Astronomical Twilight 4:25 AM KST 8:27 PM KST
Moon 10:58 AM KST 9:56 PM KST
Length of Visible Light 13h 53m
Length of Day
13h 00m
Tomorrow will be 2m 13s shorter.
Waxing Crescent, 26% of the Moon is Illuminated
Aug 30
Waxing Crescent
Sep 2
First Quarter
Sep 8
Full
Sep 15
Last Quarter
Sep 24
New

Yesterday's Extremes

Country Highs Country Lows

Community

WunderPhotos

Upload Photos

1,748,736 photos uploaded!

Nearby

Snow Depth

Not available.

Earthquake Activity

City Distance Mag. Time & Date
No recent earthquake activity has been reported nearby.
Minimum magnitude displayed is 2.5.

Coastal Water Temperatures

Place Temperature
No Stations Reporting

Nearby Weather Stations